sensor_id;sensor_type;location;lat;lon;timestamp;P1;durP1;ratioP1;P2;durP2;ratioP2
9976;SDS011;5029;47.378;11.776;2022-07-03T00:04:03;1.80;;;1.70;;
9976;SDS011;5029;47.378;11.776;2022-07-03T00:09:07;4.27;;;2.20;;
9976;SDS011;5029;47.378;11.776;2022-07-03T00:14:10;2.33;;;1.90;;
9976;SDS011;5029;47.378;11.776;2022-07-03T00:19:15;4.20;;;2.13;;
9976;SDS011;5029;47.378;11.776;2022-07-03T00:24:20;3.67;;;1.70;;
9976;SDS011;5029;47.378;11.776;2022-07-03T00:29:29;3.57;;;1.83;;
9976;SDS011;5029;47.378;11.776;2022-07-03T00:34:39;3.03;;;1.57;;
9976;SDS011;5029;47.378;11.776;2022-07-03T00:39:45;3.07;;;2.00;;
9976;SDS011;5029;47.378;11.776;2022-07-03T00:44:50;2.17;;;1.80;;
9976;SDS011;5029;47.378;11.776;2022-07-03T00:49:56;2.27;;;1.70;;
9976;SDS011;5029;47.378;11.776;2022-07-03T00:55:00;5.53;;;1.80;;
9976;SDS011;5029;47.378;11.776;2022-07-03T01:00:04;2.60;;;1.80;;
9976;SDS011;5029;47.378;11.776;2022-07-03T01:05:11;3.63;;;1.90;;
9976;SDS011;5029;47.378;11.776;2022-07-03T01:10:22;4.73;;;1.93;;
9976;SDS011;5029;47.378;11.776;2022-07-03T01:15:37;2.30;;;1.70;;
9976;SDS011;5029;47.378;11.776;2022-07-03T01:20:53;2.37;;;1.87;;
9976;SDS011;5029;47.378;11.776;2022-07-03T01:26:04;2.33;;;1.57;;
9976;SDS011;5029;47.378;11.776;2022-07-03T01:31:10;2.27;;;1.90;;
9976;SDS011;5029;47.378;11.776;2022-07-03T01:36:21;1.70;;;1.60;;
9976;SDS011;5029;47.378;11.776;2022-07-03T01:41:28;2.67;;;2.47;;
9976;SDS011;5029;47.378;11.776;2022-07-03T01:46:33;3.17;;;2.20;;
9976;SDS011;5029;47.378;11.776;2022-07-03T01:51:36;3.10;;;2.30;;
9976;SDS011;5029;47.378;11.776;2022-07-03T01:56:43;3.87;;;2.40;;
9976;SDS011;5029;47.378;11.776;2022-07-03T02:01:48;2.20;;;2.00;;
9976;SDS011;5029;47.378;11.776;2022-07-03T02:06:57;5.20;;;2.33;;
9976;SDS011;5029;47.378;11.776;2022-07-03T02:12:07;2.60;;;2.40;;
9976;SDS011;5029;47.378;11.776;2022-07-03T02:17:16;3.50;;;2.27;;
9976;SDS011;5029;47.378;11.776;2022-07-03T02:22:25;2.10;;;1.80;;
9976;SDS011;5029;47.378;11.776;2022-07-03T02:27:37;3.10;;;2.07;;
9976;SDS011;5029;47.378;11.776;2022-07-03T02:32:47;3.93;;;2.17;;
9976;SDS011;5029;47.378;11.776;2022-07-03T02:37:53;2.63;;;2.43;;
9976;SDS011;5029;47.378;11.776;2022-07-03T02:43:08;3.97;;;2.20;;
9976;SDS011;5029;47.378;11.776;2022-07-03T02:48:18;3.27;;;2.30;;
9976;SDS011;5029;47.378;11.776;2022-07-03T02:53:30;3.93;;;2.60;;
9976;SDS011;5029;47.378;11.776;2022-07-03T02:58:52;5.37;;;3.07;;
9976;SDS011;5029;47.378;11.776;2022-07-03T03:04:09;3.70;;;2.93;;
9976;SDS011;5029;47.378;11.776;2022-07-03T03:09:19;3.97;;;2.90;;
9976;SDS011;5029;47.378;11.776;2022-07-03T03:14:40;4.57;;;3.60;;
9976;SDS011;5029;47.378;11.776;2022-07-03T03:19:46;6.00;;;3.40;;
9976;SDS011;5029;47.378;11.776;2022-07-03T03:24:54;5.70;;;3.50;;
9976;SDS011;5029;47.378;11.776;2022-07-03T03:29:59;4.77;;;3.20;;
9976;SDS011;5029;47.378;11.776;2022-07-03T03:35:03;5.60;;;2.90;;
9976;SDS011;5029;47.378;11.776;2022-07-03T03:40:08;3.97;;;2.97;;
9976;SDS011;5029;47.378;11.776;2022-07-03T03:45:14;4.43;;;3.50;;
9976;SDS011;5029;47.378;11.776;2022-07-03T03:50:17;4.77;;;3.40;;
9976;SDS011;5029;47.378;11.776;2022-07-03T03:55:21;3.67;;;3.30;;
9976;SDS011;5029;47.378;11.776;2022-07-03T04:00:26;2.97;;;2.70;;
9976;SDS011;5029;47.378;11.776;2022-07-03T04:05:30;3.73;;;2.77;;
9976;SDS011;5029;47.378;11.776;2022-07-03T04:10:33;5.07;;;2.57;;
9976;SDS011;5029;47.378;11.776;2022-07-03T04:15:38;6.37;;;2.90;;
9976;SDS011;5029;47.378;11.776;2022-07-03T04:20:42;2.93;;;2.57;;
9976;SDS011;5029;47.378;11.776;2022-07-03T04:25:45;3.00;;;2.73;;
9976;SDS011;5029;47.378;11.776;2022-07-03T04:30:50;4.90;;;2.40;;
9976;SDS011;5029;47.378;11.776;2022-07-03T04:35:54;2.63;;;2.43;;
9976;SDS011;5029;47.378;11.776;2022-07-03T04:40:57;2.40;;;2.20;;
9976;SDS011;5029;47.378;11.776;2022-07-03T04:46:02;3.30;;;2.50;;
9976;SDS011;5029;47.378;11.776;2022-07-03T04:51:06;2.87;;;2.57;;
9976;SDS011;5029;47.378;11.776;2022-07-03T04:56:10;2.77;;;2.47;;
9976;SDS011;5029;47.378;11.776;2022-07-03T05:01:15;2.30;;;2.07;;
9976;SDS011;5029;47.378;11.776;2022-07-03T05:06:18;3.00;;;2.07;;
9976;SDS011;5029;47.378;11.776;2022-07-03T05:11:22;2.70;;;2.50;;
9976;SDS011;5029;47.378;11.776;2022-07-03T05:16:26;3.53;;;3.03;;
9976;SDS011;5029;47.378;11.776;2022-07-03T05:21:30;5.50;;;2.77;;
9976;SDS011;5029;47.378;11.776;2022-07-03T05:26:34;3.17;;;2.90;;
9976;SDS011;5029;47.378;11.776;2022-07-03T05:31:41;3.57;;;3.27;;
9976;SDS011;5029;47.378;11.776;2022-07-03T05:36:44;3.50;;;3.30;;
9976;SDS011;5029;47.378;11.776;2022-07-03T05:41:47;3.40;;;3.20;;
9976;SDS011;5029;47.378;11.776;2022-07-03T05:46:52;3.63;;;3.33;;
9976;SDS011;5029;47.378;11.776;2022-07-03T05:51:56;3.80;;;3.50;;
9976;SDS011;5029;47.378;11.776;2022-07-03T05:56:59;5.10;;;3.97;;
9976;SDS011;5029;47.378;11.776;2022-07-03T06:02:04;5.33;;;3.90;;
9976;SDS011;5029;47.378;11.776;2022-07-03T06:07:07;5.37;;;3.90;;
9976;SDS011;5029;47.378;11.776;2022-07-03T06:12:11;3.47;;;3.13;;
9976;SDS011;5029;47.378;11.776;2022-07-03T06:17:16;4.13;;;3.73;;
9976;SDS011;5029;47.378;11.776;2022-07-03T06:22:21;3.57;;;2.90;;
9976;SDS011;5029;47.378;11.776;2022-07-03T06:27:25;2.90;;;2.70;;
9976;SDS011;5029;47.378;11.776;2022-07-03T06:32:29;3.10;;;2.90;;
9976;SDS011;5029;47.378;11.776;2022-07-03T06:37:33;3.73;;;2.97;;
9976;SDS011;5029;47.378;11.776;2022-07-03T06:42:36;3.10;;;2.70;;
9976;SDS011;5029;47.378;11.776;2022-07-03T06:47:41;2.77;;;2.57;;
9976;SDS011;5029;47.378;11.776;2022-07-03T06:52:44;2.97;;;2.70;;
9976;SDS011;5029;47.378;11.776;2022-07-03T06:57:48;2.60;;;2.40;;
9976;SDS011;5029;47.378;11.776;2022-07-03T07:02:53;5.30;;;2.40;;
9976;SDS011;5029;47.378;11.776;2022-07-03T07:08:00;3.27;;;2.70;;
9976;SDS011;5029;47.378;11.776;2022-07-03T07:13:04;4.97;;;2.57;;
9976;SDS011;5029;47.378;11.776;2022-07-03T07:18:09;4.33;;;2.53;;
9976;SDS011;5029;47.378;11.776;2022-07-03T07:23:12;2.70;;;2.50;;
9976;SDS011;5029;47.378;11.776;2022-07-03T07:28:15;2.67;;;2.47;;
9976;SDS011;5029;47.378;11.776;2022-07-03T07:33:20;3.73;;;2.80;;
9976;SDS011;5029;47.378;11.776;2022-07-03T07:38:24;3.83;;;2.70;;
9976;SDS011;5029;47.378;11.776;2022-07-03T07:43:27;5.30;;;2.93;;
9976;SDS011;5029;47.378;11.776;2022-07-03T07:48:32;2.93;;;2.73;;
9976;SDS011;5029;47.378;11.776;2022-07-03T07:53:37;2.97;;;2.77;;
9976;SDS011;5029;47.378;11.776;2022-07-03T07:58:46;3.00;;;2.80;;
9976;SDS011;5029;47.378;11.776;2022-07-03T08:03:51;4.03;;;2.70;;
9976;SDS011;5029;47.378;11.776;2022-07-03T08:09:12;5.87;;;2.80;;
9976;SDS011;5029;47.378;11.776;2022-07-03T08:14:15;4.20;;;2.83;;
9976;SDS011;5029;47.378;11.776;2022-07-03T08:19:20;2.90;;;2.70;;
9976;SDS011;5029;47.378;11.776;2022-07-03T08:24:24;3.30;;;2.47;;
9976;SDS011;5029;47.378;11.776;2022-07-03T08:29:27;3.03;;;2.80;;
9976;SDS011;5029;47.378;11.776;2022-07-03T08:34:38;2.87;;;2.57;;
9976;SDS011;5029;47.378;11.776;2022-07-03T08:39:42;2.60;;;2.40;;
9976;SDS011;5029;47.378;11.776;2022-07-03T08:44:45;2.93;;;2.63;;
9976;SDS011;5029;47.378;11.776;2022-07-03T08:49:50;3.53;;;2.80;;
9976;SDS011;5029;47.378;11.776;2022-07-03T08:54:55;2.97;;;2.50;;
9976;SDS011;5029;47.378;11.776;2022-07-03T09:00:00;2.77;;;2.57;;
9976;SDS011;5029;47.378;11.776;2022-07-03T09:05:07;4.15;;;2.80;;
9976;SDS011;5029;47.378;11.776;2022-07-03T09:10:15;2.70;;;2.50;;
9976;SDS011;5029;47.378;11.776;2022-07-03T09:15:20;2.33;;;2.13;;
9976;SDS011;5029;47.378;11.776;2022-07-03T09:20:29;3.20;;;2.47;;
9976;SDS011;5029;47.378;11.776;2022-07-03T09:25:33;3.33;;;2.10;;
9976;SDS011;5029;47.378;11.776;2022-07-03T09:30:37;2.97;;;2.30;;
9976;SDS011;5029;47.378;11.776;2022-07-03T09:35:42;2.10;;;1.90;;
9976;SDS011;5029;47.378;11.776;2022-07-03T09:40:53;2.25;;;1.80;;
9976;SDS011;5029;47.378;11.776;2022-07-03T09:45:59;1.55;;;1.45;;
9976;SDS011;5029;47.378;11.776;2022-07-03T09:51:11;1.55;;;1.40;;
9976;SDS011;5029;47.378;11.776;2022-07-03T09:56:17;3.47;;;1.30;;
9976;SDS011;5029;47.378;11.776;2022-07-03T10:01:21;1.50;;;1.40;;
9976;SDS011;5029;47.378;11.776;2022-07-03T10:06:26;2.00;;;1.30;;
9976;SDS011;5029;47.378;11.776;2022-07-03T10:11:29;1.70;;;1.20;;
9976;SDS011;5029;47.378;11.776;2022-07-03T10:16:36;1.55;;;1.23;;
9976;SDS011;5029;47.378;11.776;2022-07-03T10:21:41;1.63;;;1.08;;
9976;SDS011;5029;47.378;11.776;2022-07-03T10:26:46;1.35;;;1.13;;
9976;SDS011;5029;47.378;11.776;2022-07-03T10:31:50;2.15;;;1.27;;
9976;SDS011;5029;47.378;11.776;2022-07-03T10:36:56;2.42;;;1.42;;
9976;SDS011;5029;47.378;11.776;2022-07-03T10:42:01;2.63;;;1.42;;
9976;SDS011;5029;47.378;11.776;2022-07-03T10:47:43;1.40;;;1.30;;
9976;SDS011;5029;47.378;11.776;2022-07-03T10:52:48;1.98;;;1.55;;
9976;SDS011;5029;47.378;11.776;2022-07-03T11:03:16;3.13;;;1.60;;
9976;SDS011;5029;47.378;11.776;2022-07-03T11:09:05;3.72;;;1.35;;
9976;SDS011;5029;47.378;11.776;2022-07-03T11:14:17;3.67;;;1.38;;
9976;SDS011;5029;47.378;11.776;2022-07-03T11:19:24;1.48;;;1.38;;
9976;SDS011;5029;47.378;11.776;2022-07-03T11:24:41;1.30;;;1.20;;
9976;SDS011;5029;47.378;11.776;2022-07-03T11:29:54;1.98;;;1.27;;
9976;SDS011;5029;47.378;11.776;2022-07-03T11:35:02;1.30;;;1.20;;
9976;SDS011;5029;47.378;11.776;2022-07-03T11:40:07;1.38;;;1.27;;
9976;SDS011;5029;47.378;11.776;2022-07-03T11:45:12;2.42;;;1.30;;
9976;SDS011;5029;47.378;11.776;2022-07-03T11:50:15;1.20;;;1.02;;
9976;SDS011;5029;47.378;11.776;2022-07-03T11:55:20;1.52;;;1.30;;
9976;SDS011;5029;47.378;11.776;2022-07-03T12:00:28;1.70;;;1.60;;
9976;SDS011;5029;47.378;11.776;2022-07-03T12:05:32;2.35;;;1.20;;
9976;SDS011;5029;47.378;11.776;2022-07-03T12:10:38;1.20;;;1.10;;
9976;SDS011;5029;47.378;11.776;2022-07-03T12:15:42;1.42;;;1.33;;
9976;SDS011;5029;47.378;11.776;2022-07-03T12:20:45;2.65;;;1.40;;
9976;SDS011;5029;47.378;11.776;2022-07-03T12:25:51;1.42;;;1.23;;
9976;SDS011;5029;47.378;11.776;2022-07-03T12:30:54;1.13;;;1.10;;
9976;SDS011;5029;47.378;11.776;2022-07-03T12:36:01;1.27;;;1.17;;
9976;SDS011;5029;47.378;11.776;2022-07-03T12:41:08;1.13;;;1.02;;
9976;SDS011;5029;47.378;11.776;2022-07-03T12:46:15;1.40;;;1.30;;
9976;SDS011;5029;47.378;11.776;2022-07-03T12:51:36;1.50;;;1.30;;
9976;SDS011;5029;47.378;11.776;2022-07-03T12:56:42;1.40;;;1.30;;
9976;SDS011;5029;47.378;11.776;2022-07-03T13:01:59;2.60;;;1.23;;
9976;SDS011;5029;47.378;11.776;2022-07-03T13:07:04;2.85;;;1.30;;
9976;SDS011;5029;47.378;11.776;2022-07-03T13:12:10;1.25;;;1.17;;
9976;SDS011;5029;47.378;11.776;2022-07-03T13:23:02;1.33;;;1.23;;
9976;SDS011;5029;47.378;11.776;2022-07-03T13:28:09;1.48;;;1.30;;
9976;SDS011;5029;47.378;11.776;2022-07-03T13:33:15;3.05;;;1.40;;
9976;SDS011;5029;47.378;11.776;2022-07-03T13:38:20;1.55;;;1.33;;
9976;SDS011;5029;47.378;11.776;2022-07-03T13:43:28;2.70;;;1.30;;
9976;SDS011;5029;47.378;11.776;2022-07-03T13:48:32;1.80;;;1.38;;
9976;SDS011;5029;47.378;11.776;2022-07-03T13:53:35;1.60;;;1.50;;
9976;SDS011;5029;47.378;11.776;2022-07-03T13:58:41;1.55;;;1.40;;
9976;SDS011;5029;47.378;11.776;2022-07-03T14:03:51;2.53;;;1.33;;
9976;SDS011;5029;47.378;11.776;2022-07-03T14:08:55;1.75;;;1.40;;
9976;SDS011;5029;47.378;11.776;2022-07-03T14:14:00;2.30;;;1.38;;
9976;SDS011;5029;47.378;11.776;2022-07-03T14:19:03;1.55;;;1.45;;
9976;SDS011;5029;47.378;11.776;2022-07-03T14:24:07;2.95;;;1.25;;
9976;SDS011;5029;47.378;11.776;2022-07-03T14:29:12;2.10;;;1.30;;
9976;SDS011;5029;47.378;11.776;2022-07-03T14:34:33;1.40;;;1.30;;
9976;SDS011;5029;47.378;11.776;2022-07-03T14:39:37;1.73;;;1.58;;
9976;SDS011;5029;47.378;11.776;2022-07-03T14:44:42;1.55;;;1.20;;
9976;SDS011;5029;47.378;11.776;2022-07-03T14:49:46;2.08;;;1.10;;
9976;SDS011;5029;47.378;11.776;2022-07-03T14:54:50;1.50;;;1.30;;
9976;SDS011;5029;47.378;11.776;2022-07-03T15:00:01;4.32;;;1.30;;
9976;SDS011;5029;47.378;11.776;2022-07-03T15:05:08;1.70;;;1.55;;
9976;SDS011;5029;47.378;11.776;2022-07-03T15:10:13;1.20;;;1.13;;
9976;SDS011;5029;47.378;11.776;2022-07-03T15:15:19;1.40;;;1.30;;
9976;SDS011;5029;47.378;11.776;2022-07-03T15:20:25;3.47;;;1.60;;
9976;SDS011;5029;47.378;11.776;2022-07-03T15:25:33;1.42;;;1.25;;
9976;SDS011;5029;47.378;11.776;2022-07-03T15:30:47;1.70;;;1.40;;
9976;SDS011;5029;47.378;11.776;2022-07-03T15:35:54;1.85;;;1.27;;
9976;SDS011;5029;47.378;11.776;2022-07-03T15:41:01;1.60;;;1.50;;
9976;SDS011;5029;47.378;11.776;2022-07-03T15:46:16;1.98;;;1.30;;
9976;SDS011;5029;47.378;11.776;2022-07-03T15:51:28;1.20;;;1.10;;
9976;SDS011;5029;47.378;11.776;2022-07-03T15:56:41;1.42;;;1.30;;
9976;SDS011;5029;47.378;11.776;2022-07-03T16:01:49;1.50;;;1.20;;
9976;SDS011;5029;47.378;11.776;2022-07-03T16:07:13;3.20;;;1.58;;
9976;SDS011;5029;47.378;11.776;2022-07-03T16:12:18;2.08;;;1.25;;
9976;SDS011;5029;47.378;11.776;2022-07-03T16:17:24;2.75;;;1.40;;
9976;SDS011;5029;47.378;11.776;2022-07-03T16:22:42;1.40;;;1.13;;
9976;SDS011;5029;47.378;11.776;2022-07-03T16:27:46;1.48;;;1.25;;
9976;SDS011;5029;47.378;11.776;2022-07-03T16:32:51;2.50;;;1.20;;
9976;SDS011;5029;47.378;11.776;2022-07-03T16:37:55;1.20;;;1.10;;
9976;SDS011;5029;47.378;11.776;2022-07-03T16:43:01;1.85;;;1.20;;
9976;SDS011;5029;47.378;11.776;2022-07-03T16:48:10;1.60;;;1.30;;
9976;SDS011;5029;47.378;11.776;2022-07-03T16:53:16;2.03;;;1.42;;
9976;SDS011;5029;47.378;11.776;2022-07-03T16:58:20;1.40;;;1.20;;
9976;SDS011;5029;47.378;11.776;2022-07-03T17:03:26;1.38;;;1.10;;
9976;SDS011;5029;47.378;11.776;2022-07-03T17:08:30;1.30;;;1.20;;
9976;SDS011;5029;47.378;11.776;2022-07-03T17:13:35;2.47;;;1.45;;
9976;SDS011;5029;47.378;11.776;2022-07-03T17:18:41;2.05;;;1.20;;
9976;SDS011;5029;47.378;11.776;2022-07-03T17:23:50;1.55;;;1.25;;
9976;SDS011;5029;47.378;11.776;2022-07-03T17:28:58;2.95;;;1.42;;
9976;SDS011;5029;47.378;11.776;2022-07-03T17:34:04;1.95;;;1.30;;
9976;SDS011;5029;47.378;11.776;2022-07-03T17:39:14;4.80;;;1.10;;
9976;SDS011;5029;47.378;11.776;2022-07-03T17:44:21;2.00;;;1.27;;
9976;SDS011;5029;47.378;11.776;2022-07-03T17:49:27;1.60;;;1.50;;
9976;SDS011;5029;47.378;11.776;2022-07-03T17:54:34;1.40;;;1.27;;
9976;SDS011;5029;47.378;11.776;2022-07-03T17:59:39;2.35;;;1.40;;
9976;SDS011;5029;47.378;11.776;2022-07-03T18:04:46;2.63;;;1.30;;
9976;SDS011;5029;47.378;11.776;2022-07-03T18:09:49;1.90;;;1.45;;
9976;SDS011;5029;47.378;11.776;2022-07-03T18:15:02;1.40;;;1.30;;
9976;SDS011;5029;47.378;11.776;2022-07-03T18:20:16;2.88;;;1.58;;
9976;SDS011;5029;47.378;11.776;2022-07-03T18:25:22;3.20;;;1.55;;
9976;SDS011;5029;47.378;11.776;2022-07-03T18:30:28;1.92;;;1.40;;
9976;SDS011;5029;47.378;11.776;2022-07-03T18:35:33;6.93;;;1.67;;
9976;SDS011;5029;47.378;11.776;2022-07-03T18:40:38;2.35;;;1.60;;
9976;SDS011;5029;47.378;11.776;2022-07-03T18:51:37;1.73;;;1.50;;
9976;SDS011;5029;47.378;11.776;2022-07-03T18:56:58;4.13;;;1.75;;
9976;SDS011;5029;47.378;11.776;2022-07-03T19:02:10;2.22;;;1.50;;
9976;SDS011;5029;47.378;11.776;2022-07-03T19:07:21;2.17;;;1.50;;
9976;SDS011;5029;47.378;11.776;2022-07-03T19:12:32;2.53;;;1.90;;
9976;SDS011;5029;47.378;11.776;2022-07-03T19:17:39;2.55;;;1.50;;
9976;SDS011;5029;47.378;11.776;2022-07-03T19:22:46;1.63;;;1.48;;
9976;SDS011;5029;47.378;11.776;2022-07-03T19:27:49;2.47;;;1.50;;
9976;SDS011;5029;47.378;11.776;2022-07-03T19:32:54;3.15;;;1.40;;
9976;SDS011;5029;47.378;11.776;2022-07-03T19:37:59;3.63;;;1.88;;
9976;SDS011;5029;47.378;11.776;2022-07-03T19:43:06;2.10;;;1.60;;
9976;SDS011;5029;47.378;11.776;2022-07-03T19:48:16;2.00;;;1.80;;
9976;SDS011;5029;47.378;11.776;2022-07-03T19:53:21;2.67;;;2.05;;
9976;SDS011;5029;47.378;11.776;2022-07-03T19:58:25;4.30;;;1.80;;
9976;SDS011;5029;47.378;11.776;2022-07-03T20:03:28;3.93;;;1.73;;
9976;SDS011;5029;47.378;11.776;2022-07-03T20:08:33;2.20;;;1.67;;
9976;SDS011;5029;47.378;11.776;2022-07-03T20:13:37;2.07;;;1.50;;
9976;SDS011;5029;47.378;11.776;2022-07-03T20:18:40;1.80;;;1.70;;
9976;SDS011;5029;47.378;11.776;2022-07-03T20:23:45;2.47;;;1.80;;
9976;SDS011;5029;47.378;11.776;2022-07-03T20:29:06;4.63;;;1.90;;
9976;SDS011;5029;47.378;11.776;2022-07-03T20:34:09;2.80;;;1.80;;
9976;SDS011;5029;47.378;11.776;2022-07-03T20:39:15;4.20;;;1.80;;
9976;SDS011;5029;47.378;11.776;2022-07-03T20:44:19;2.00;;;1.83;;
9976;SDS011;5029;47.378;11.776;2022-07-03T20:49:24;1.70;;;1.60;;
9976;SDS011;5029;47.378;11.776;2022-07-03T20:54:29;2.53;;;1.53;;
9976;SDS011;5029;47.378;11.776;2022-07-03T20:59:33;3.63;;;2.00;;
9976;SDS011;5029;47.378;11.776;2022-07-03T21:04:36;2.00;;;1.77;;
9976;SDS011;5029;47.378;11.776;2022-07-03T21:09:42;3.07;;;2.00;;
9976;SDS011;5029;47.378;11.776;2022-07-03T21:14:46;5.67;;;1.73;;
9976;SDS011;5029;47.378;11.776;2022-07-03T21:19:49;1.70;;;1.60;;
9976;SDS011;5029;47.378;11.776;2022-07-03T21:24:54;2.50;;;2.20;;
9976;SDS011;5029;47.378;11.776;2022-07-03T21:29:58;2.30;;;2.10;;
9976;SDS011;5029;47.378;11.776;2022-07-03T21:35:01;2.53;;;2.20;;
9976;SDS011;5029;47.378;11.776;2022-07-03T21:40:07;3.87;;;2.10;;
9976;SDS011;5029;47.378;11.776;2022-07-03T21:45:12;3.17;;;2.20;;
9976;SDS011;5029;47.378;11.776;2022-07-03T21:50:16;3.60;;;2.00;;
9976;SDS011;5029;47.378;11.776;2022-07-03T21:55:21;3.50;;;1.90;;
9976;SDS011;5029;47.378;11.776;2022-07-03T22:00:25;2.40;;;2.17;;
9976;SDS011;5029;47.378;11.776;2022-07-03T22:05:30;3.67;;;2.00;;
9976;SDS011;5029;47.378;11.776;2022-07-03T22:10:37;5.67;;;1.90;;
9976;SDS011;5029;47.378;11.776;2022-07-03T22:15:41;4.87;;;2.00;;
9976;SDS011;5029;47.378;11.776;2022-07-03T22:20:45;2.63;;;2.20;;
9976;SDS011;5029;47.378;11.776;2022-07-03T22:25:49;3.93;;;1.90;;
9976;SDS011;5029;47.378;11.776;2022-07-03T22:30:53;4.53;;;2.20;;
9976;SDS011;5029;47.378;11.776;2022-07-03T22:36:38;2.83;;;1.97;;
9976;SDS011;5029;47.378;11.776;2022-07-03T22:41:43;4.37;;;2.20;;
9976;SDS011;5029;47.378;11.776;2022-07-03T22:46:46;2.20;;;2.00;;
9976;SDS011;5029;47.378;11.776;2022-07-03T22:51:50;2.80;;;2.10;;
9976;SDS011;5029;47.378;11.776;2022-07-03T22:56:55;3.00;;;1.63;;
9976;SDS011;5029;47.378;11.776;2022-07-03T23:02:00;2.57;;;1.90;;
9976;SDS011;5029;47.378;11.776;2022-07-03T23:07:04;1.70;;;1.60;;
9976;SDS011;5029;47.378;11.776;2022-07-03T23:12:09;2.07;;;1.80;;
9976;SDS011;5029;47.378;11.776;2022-07-03T23:17:14;2.67;;;2.10;;
9976;SDS011;5029;47.378;11.776;2022-07-03T23:22:18;3.00;;;2.00;;
9976;SDS011;5029;47.378;11.776;2022-07-03T23:27:22;2.20;;;2.00;;
9976;SDS011;5029;47.378;11.776;2022-07-03T23:32:26;3.83;;;1.93;;
9976;SDS011;5029;47.378;11.776;2022-07-03T23:37:29;2.10;;;1.90;;
9976;SDS011;5029;47.378;11.776;2022-07-03T23:42:50;2.73;;;2.00;;
9976;SDS011;5029;47.378;11.776;2022-07-03T23:47:57;2.40;;;2.20;;
9976;SDS011;5029;47.378;11.776;2022-07-03T23:53:01;3.30;;;2.10;;
9976;SDS011;5029;47.378;11.776;2022-07-03T23:58:06;3.47;;;2.27;;
